createdAt,value
2016-03-23T00:00:56.516Z,0
2016-03-23T00:01:56.518Z,0
2016-03-23T00:02:56.506Z,0
2016-03-23T00:03:56.508Z,0
2016-03-23T00:04:56.495Z,0
2016-03-23T00:05:56.497Z,0
2016-03-23T00:06:56.470Z,0
2016-03-23T00:07:56.487Z,0
2016-03-23T00:08:56.458Z,0
2016-03-23T00:09:56.461Z,0
2016-03-23T00:10:56.464Z,0
2016-03-23T00:11:56.451Z,0
2016-03-23T00:12:56.453Z,0
2016-03-23T00:13:56.425Z,0
2016-03-23T00:14:58.022Z,0
2016-03-23T00:15:56.649Z,0
2016-03-23T00:16:57.731Z,0
2016-03-23T00:17:57.702Z,0
2016-03-23T00:18:57.361Z,0
2016-03-23T00:19:56.488Z,0
2016-03-23T00:20:56.397Z,0
2016-03-23T00:21:56.713Z,0
2016-03-23T00:22:56.371Z,0
2016-03-23T00:23:56.359Z,0
2016-03-23T00:24:58.393Z,0
2016-03-23T00:25:58.193Z,0
2016-03-23T00:26:57.476Z,0
2016-03-23T00:27:56.323Z,0
2016-03-23T00:28:57.076Z,0
2016-03-23T00:29:56.734Z,0
2016-03-23T00:30:56.319Z,0
2016-03-23T00:31:56.305Z,0
2016-03-23T00:32:56.308Z,0
2016-03-23T00:33:57.966Z,0
2016-03-23T00:34:57.141Z,0
2016-03-23T00:35:56.253Z,0
2016-03-23T00:36:56.256Z,0
2016-03-23T00:37:56.243Z,0
2016-03-23T00:38:56.277Z,0
2016-03-23T00:39:56.232Z,0
2016-03-23T00:40:56.235Z,0
2016-03-23T00:41:56.238Z,0
2016-03-23T00:42:56.240Z,0
2016-03-23T00:43:57.243Z,0
2016-03-23T00:44:57.120Z,0
2016-03-23T00:45:56.545Z,0
2016-03-23T00:47:56.332Z,0
2016-03-23T00:48:56.179Z,0
2016-03-23T00:49:56.181Z,0
2016-03-23T00:50:56.153Z,0
2016-03-23T00:51:56.156Z,0
2016-03-23T00:52:56.158Z,0
2016-03-23T00:53:56.130Z,0
2016-03-23T00:54:56.132Z,0
2016-03-23T00:55:56.136Z,0
2016-03-23T00:56:56.122Z,0
2016-03-23T00:57:56.109Z,0
2016-03-23T00:58:56.112Z,0
2016-03-23T00:59:56.068Z,0
2016-03-23T01:00:56.102Z,0
2016-03-23T01:01:56.074Z,0
2016-03-23T01:02:56.061Z,0
2016-03-23T01:03:56.063Z,0
2016-03-23T01:04:56.081Z,0
2016-03-23T01:05:56.052Z,0
2016-03-23T01:06:56.040Z,0
2016-03-23T01:07:56.011Z,0
2016-03-23T01:08:56.014Z,0
2016-03-23T01:09:56.016Z,0
2016-03-23T01:10:56.004Z,0
2016-03-23T01:11:56.006Z,0
2016-03-23T01:12:55.993Z,0
2016-03-23T01:13:55.903Z,0
2016-03-23T01:14:55.967Z,0
2016-03-23T01:15:55.986Z,0
2016-03-23T01:16:55.957Z,0
2016-03-23T01:17:55.960Z,0
2016-03-23T01:18:55.962Z,0
2016-03-23T01:19:55.933Z,0
2016-03-23T01:20:55.937Z,0
2016-03-23T01:21:55.939Z,0
2016-03-23T01:22:55.911Z,0
2016-03-23T01:23:55.898Z,0
2016-03-23T01:24:55.885Z,0
2016-03-23T01:25:55.903Z,0
2016-03-23T01:26:55.875Z,0
2016-03-23T01:27:55.925Z,0
2016-03-23T01:28:56.099Z,0
2016-03-23T01:29:55.866Z,0
2016-03-23T01:30:55.855Z,0
2016-03-23T01:31:55.841Z,0
2016-03-23T01:32:55.844Z,0
2016-03-23T01:33:58.175Z,0
2016-03-23T01:34:56.710Z,0
2016-03-23T01:35:55.852Z,0
2016-03-23T01:36:55.807Z,0
2016-03-23T01:37:55.795Z,0
2016-03-23T01:38:56.579Z,0
2016-03-23T01:39:55.816Z,0
2016-03-23T01:40:55.803Z,0
2016-03-23T01:41:55.774Z,0
2016-03-23T01:42:55.777Z,0
2016-03-23T01:43:55.701Z,0
2016-03-23T01:44:55.767Z,0
2016-03-23T01:45:55.770Z,0
2016-03-23T01:46:56.866Z,0
2016-03-23T01:47:55.728Z,0
2016-03-23T01:48:56.309Z,0
2016-03-23T01:49:55.733Z,0
2016-03-23T01:50:55.752Z,0
2016-03-23T01:51:55.708Z,0
2016-03-23T01:52:56.195Z,0
2016-03-23T01:53:55.666Z,0
2016-03-23T01:54:56.341Z,0
2016-03-23T01:55:56.484Z,0
2016-03-23T01:56:56.127Z,0
2016-03-23T01:57:55.646Z,0
2016-03-23T01:58:55.601Z,0
2016-03-23T01:59:55.745Z,0
2016-03-23T02:00:55.654Z,0
2016-03-23T02:01:55.624Z,0
2016-03-23T02:03:10.128Z,0
2016-03-23T02:03:55.630Z,0
2016-03-23T02:04:55.618Z,0
2016-03-23T02:05:56.199Z,0
2016-03-23T02:06:55.936Z,0
2016-03-23T02:07:56.110Z,0
2016-03-23T02:08:55.479Z,0
2016-03-23T02:09:55.448Z,0
2016-03-23T02:10:55.881Z,0
2016-03-23T02:11:55.875Z,0
2016-03-23T02:12:55.566Z,0
2016-03-23T02:13:55.428Z,0
2016-03-23T02:14:55.540Z,0
2016-03-23T02:15:55.527Z,0
2016-03-23T02:16:55.545Z,0
2016-03-23T02:17:55.501Z,0
2016-03-23T02:18:55.519Z,0
2016-03-23T02:19:55.538Z,0
2016-03-23T02:20:55.500Z,0
2016-03-23T02:21:55.471Z,0
2016-03-23T02:22:55.489Z,0
2016-03-23T02:23:55.461Z,0
2016-03-23T02:24:55.463Z,0
2016-03-23T02:25:55.451Z,0
2016-03-23T02:26:55.469Z,0
2016-03-23T02:27:55.455Z,0
2016-03-23T02:28:55.474Z,0
2016-03-23T02:29:55.414Z,0
2016-03-23T02:30:55.432Z,0
2016-03-23T02:31:55.405Z,0
2016-03-23T02:32:55.407Z,0
2016-03-23T02:33:55.410Z,0
2016-03-23T02:34:55.412Z,0
2016-03-23T02:35:55.399Z,0
2016-03-23T02:36:55.386Z,0
2016-03-23T02:37:55.388Z,0
2016-03-23T02:38:55.376Z,0
2016-03-23T02:39:55.346Z,0
2016-03-23T02:40:55.366Z,0
2016-03-23T02:41:55.337Z,0
2016-03-23T02:42:55.340Z,0
2016-03-23T02:43:55.327Z,0
2016-03-23T02:44:55.329Z,0
2016-03-23T02:45:55.301Z,0
2016-03-23T02:46:55.319Z,0
2016-03-23T02:47:55.291Z,0
2016-03-23T02:48:55.309Z,0
2016-03-23T02:49:55.281Z,0
2016-03-23T02:50:55.298Z,0
2016-03-23T02:51:55.317Z,0
2016-03-23T02:52:55.273Z,0
2016-03-23T02:53:57.275Z,0
2016-03-23T02:54:55.498Z,0
2016-03-23T02:55:56.219Z,0
2016-03-23T02:56:55.768Z,0
2016-03-23T02:57:55.240Z,0
2016-03-23T02:58:55.227Z,0
2016-03-23T02:59:55.230Z,0
2016-03-23T03:00:55.372Z,0
2016-03-23T03:01:55.219Z,0
2016-03-23T03:02:55.519Z,0
2016-03-23T03:03:55.630Z,0
2016-03-23T03:04:55.196Z,0
2016-03-23T03:05:56.355Z,0
2016-03-23T03:06:55.186Z,0
2016-03-23T03:07:55.438Z,0
2016-03-23T03:08:55.472Z,0
2016-03-23T03:09:55.163Z,0
2016-03-23T03:10:55.150Z,0
2016-03-23T03:12:56.123Z,0
2016-03-23T03:13:55.142Z,0
2016-03-23T03:14:55.113Z,0
2016-03-23T03:15:55.115Z,0
2016-03-23T03:16:55.197Z,0
2016-03-23T03:17:55.090Z,0
2016-03-23T03:18:55.108Z,0
2016-03-23T03:19:55.111Z,0
2016-03-23T03:20:55.098Z,0
2016-03-23T03:21:56.023Z,0
2016-03-23T03:22:55.837Z,0
2016-03-23T03:23:55.106Z,0
2016-03-23T03:25:09.250Z,0
2016-03-23T03:25:55.033Z,0
2016-03-23T03:26:55.489Z,0
2016-03-23T03:27:55.008Z,0
2016-03-23T03:28:55.276Z,0
2016-03-23T03:29:55.013Z,0
2016-03-23T03:30:57.314Z,0
2016-03-23T03:31:55.003Z,0
2016-03-23T03:32:54.991Z,0
2016-03-23T03:33:54.993Z,0
2016-03-23T03:34:54.995Z,0
2016-03-23T03:35:54.983Z,0
2016-03-23T03:36:54.970Z,0
2016-03-23T03:37:54.942Z,0
2016-03-23T03:38:54.975Z,0
2016-03-23T03:39:54.916Z,0
2016-03-23T03:40:54.950Z,0
2016-03-23T03:41:54.921Z,0
2016-03-23T03:42:54.940Z,0
2016-03-23T03:43:55.270Z,0
2016-03-23T03:44:54.914Z,0
2016-03-23T03:45:54.900Z,0
2016-03-23T03:46:54.903Z,0
2016-03-23T03:47:54.891Z,0
2016-03-23T03:48:54.877Z,0
2016-03-23T03:49:54.896Z,0
2016-03-23T03:50:54.868Z,0
2016-03-23T03:51:54.854Z,0
2016-03-23T03:52:54.857Z,0
2016-03-23T03:53:54.844Z,0
2016-03-23T03:54:54.863Z,0
2016-03-23T03:55:54.849Z,0
2016-03-23T03:56:54.852Z,0
2016-03-23T03:57:54.840Z,0
2016-03-23T03:58:54.842Z,0
2016-03-23T03:59:54.829Z,0
2016-03-23T04:00:54.816Z,0
2016-03-23T04:01:54.787Z,0
2016-03-23T04:02:54.806Z,0
2016-03-23T04:03:54.793Z,0
2016-03-23T04:04:54.781Z,0
2016-03-23T04:05:54.767Z,0
2016-03-23T04:06:54.770Z,0
2016-03-23T04:07:54.756Z,0
2016-03-23T04:08:54.759Z,0
2016-03-23T04:09:54.731Z,0
2016-03-23T04:10:54.749Z,0
2016-03-23T04:11:55.190Z,0
2016-03-23T04:12:54.739Z,0
2016-03-23T04:13:55.539Z,0
2016-03-23T04:14:56.088Z,0
2016-03-23T04:15:55.825Z,0
2016-03-23T04:16:54.953Z,0
2016-03-23T04:17:54.752Z,0
2016-03-23T04:18:54.693Z,0
2016-03-23T04:19:54.679Z,0
2016-03-23T04:20:54.666Z,0
2016-03-23T04:21:55.216Z,0
2016-03-23T04:22:55.406Z,0
2016-03-23T04:23:54.815Z,0
2016-03-23T04:24:54.662Z,0
2016-03-23T04:25:54.632Z,0
2016-03-23T04:26:55.104Z,0
2016-03-23T04:27:55.185Z,0
2016-03-23T04:28:54.640Z,0
2016-03-23T04:29:54.690Z,0
2016-03-23T04:31:54.603Z,4
2016-03-23T04:32:54.948Z,4
2016-03-23T04:33:55.139Z,4
2016-03-23T04:34:54.970Z,4
2016-03-23T04:35:54.988Z,4
2016-03-23T04:36:55.381Z,4
2016-03-23T04:37:54.587Z,4
2016-03-23T04:38:54.559Z,4
2016-03-23T04:39:54.577Z,4
2016-03-23T04:40:54.548Z,8
2016-03-23T04:41:54.723Z,8
2016-03-23T04:43:22.898Z,8
2016-03-23T04:43:54.572Z,12
2016-03-23T04:44:55.059Z,12
2016-03-23T04:45:54.531Z,12
2016-03-23T04:46:54.502Z,16
2016-03-23T04:47:54.599Z,20
2016-03-23T04:48:54.477Z,20
2016-03-23T04:49:54.511Z,24
2016-03-23T04:50:54.450Z,28
2016-03-23T04:51:54.468Z,32
2016-03-23T04:52:54.441Z,32
2016-03-23T04:53:54.458Z,36
2016-03-23T04:54:54.508Z,44
2016-03-23T04:55:54.449Z,48
2016-03-23T04:56:54.420Z,56
2016-03-23T04:57:54.423Z,64
2016-03-23T04:58:54.456Z,68
2016-03-23T04:59:54.413Z,80
2016-03-23T05:00:54.415Z,88
2016-03-23T05:01:54.387Z,100
2016-03-23T05:02:54.404Z,112
2016-03-23T05:03:54.376Z,128
2016-03-23T05:04:54.425Z,148
2016-03-23T05:05:54.351Z,160
2016-03-23T05:06:54.400Z,160
2016-03-23T05:07:54.356Z,176
2016-03-23T05:08:54.373Z,196
2016-03-23T05:09:54.330Z,212
2016-03-23T05:10:54.348Z,224
2016-03-23T05:11:54.335Z,244
2016-03-23T05:12:54.306Z,256
2016-03-23T05:13:54.340Z,272
2016-03-23T05:14:54.328Z,296
2016-03-23T05:15:54.327Z,312
2016-03-23T05:16:54.289Z,340
2016-03-23T05:17:54.249Z,360
2016-03-23T05:18:54.241Z,400
2016-03-23T05:19:54.219Z,424
2016-03-23T05:20:54.228Z,440
2016-03-23T05:21:54.040Z,448
2016-03-23T05:22:54.211Z,464
2016-03-23T05:23:54.179Z,464
2016-03-23T05:24:54.179Z,472
2016-03-23T05:25:54.147Z,492
2016-03-23T05:26:54.148Z,512
2016-03-23T05:27:54.149Z,540
2016-03-23T05:28:54.166Z,544
2016-03-23T05:29:54.120Z,528
2016-03-23T05:30:54.574Z,520
2016-03-23T05:31:54.124Z,536
2016-03-23T05:32:55.002Z,568
2016-03-23T05:33:55.082Z,576
2016-03-23T05:34:54.912Z,592
2016-03-23T05:35:54.728Z,600
2016-03-23T05:36:54.558Z,600
2016-03-23T05:37:54.077Z,632
2016-03-23T05:38:54.063Z,624
2016-03-23T05:39:54.050Z,680
2016-03-23T05:40:55.303Z,716
2016-03-23T05:41:55.555Z,772
2016-03-23T05:42:55.043Z,880
2016-03-23T05:43:54.029Z,976
2016-03-23T05:44:54.720Z,1056
2016-03-23T05:45:54.363Z,1104
2016-03-23T05:46:54.007Z,1100
2016-03-23T05:47:54.010Z,1108
2016-03-23T05:48:54.012Z,1084
2016-03-23T05:50:08.984Z,1076
2016-03-23T05:50:54.861Z,1084
2016-03-23T05:52:22.707Z,1136
2016-03-23T05:52:53.976Z,1184
2016-03-23T05:53:54.854Z,1220
2016-03-23T05:54:53.934Z,1228
2016-03-23T05:55:54.235Z,1276
2016-03-23T05:56:53.940Z,1236
2016-03-23T05:57:53.927Z,1524
2016-03-23T05:58:54.102Z,1844
2016-03-23T05:59:55.026Z,2000
2016-03-23T06:00:54.560Z,2312
2016-03-23T06:01:53.891Z,2700
2016-03-23T06:02:54.659Z,2996
2016-03-23T06:03:54.381Z,2784
2016-03-23T06:04:54.320Z,2512
2016-03-23T06:05:53.855Z,2276
2016-03-23T06:06:53.991Z,2008
2016-03-23T06:07:53.895Z,1828
2016-03-23T06:08:53.867Z,1748
2016-03-23T06:09:53.838Z,1760
2016-03-23T06:10:53.857Z,1712
2016-03-23T06:11:53.828Z,1756
2016-03-23T06:12:53.831Z,1772
2016-03-23T06:13:53.818Z,1744
2016-03-23T06:14:53.836Z,1824
2016-03-23T06:15:53.792Z,2028
2016-03-23T06:16:53.794Z,2144
2016-03-23T06:17:53.781Z,2324
2016-03-23T06:18:53.769Z,2580
2016-03-23T06:19:53.787Z,3100
2016-03-23T06:20:53.790Z,3640
2016-03-23T06:21:53.777Z,4256
2016-03-23T06:22:53.748Z,4332
2016-03-23T06:23:53.766Z,4256
2016-03-23T06:24:53.753Z,4480
2016-03-23T06:25:53.741Z,4732
2016-03-23T06:26:55.087Z,5332
2016-03-23T06:27:53.730Z,5072
2016-03-23T06:28:53.717Z,5388
2016-03-23T06:29:53.704Z,4748
2016-03-23T06:30:53.722Z,4572
2016-03-23T06:31:53.694Z,4812
2016-03-23T06:32:53.713Z,4732
2016-03-23T06:33:53.685Z,4364
2016-03-23T06:34:53.671Z,4336
2016-03-23T06:35:53.674Z,4536
2016-03-23T06:36:53.676Z,4612
2016-03-23T06:37:53.663Z,5152
2016-03-23T06:38:53.635Z,5468
2016-03-23T06:39:53.653Z,6320
2016-03-23T06:40:53.624Z,6864
2016-03-23T06:41:53.658Z,6596
2016-03-23T06:42:53.614Z,5996
2016-03-23T06:43:53.632Z,5852
2016-03-23T06:44:53.604Z,5904
2016-03-23T06:45:53.607Z,6136
2016-03-23T06:46:53.594Z,6776
2016-03-23T06:47:53.597Z,7356
2016-03-23T06:48:53.583Z,7272
2016-03-23T06:49:55.148Z,7012
2016-03-23T06:50:54.589Z,6928
2016-03-23T06:51:53.560Z,6712
2016-03-23T06:52:53.781Z,7152
2016-03-23T06:53:54.144Z,7904
2016-03-23T06:54:53.694Z,8064
2016-03-23T06:55:53.822Z,9140
2016-03-23T06:56:53.528Z,9640
2016-03-23T06:57:53.561Z,9388
2016-03-23T06:58:53.533Z,8624
2016-03-23T06:59:53.739Z,7876
2016-03-23T07:00:54.116Z,7624
2016-03-23T07:01:53.931Z,7160
2016-03-23T07:02:53.513Z,7520
2016-03-23T07:03:54.436Z,7712
2016-03-23T07:04:53.502Z,7832
2016-03-23T07:05:53.504Z,7628
2016-03-23T07:06:53.491Z,7644
2016-03-23T07:07:53.321Z,6792
2016-03-23T07:09:08.013Z,5780
2016-03-23T07:09:53.452Z,5332
2016-03-23T07:10:54.237Z,4804
2016-03-23T07:12:07.708Z,4596
2016-03-23T07:12:53.960Z,4452
2016-03-23T07:13:53.448Z,4608
2016-03-23T07:14:53.606Z,5420
2016-03-23T07:15:53.437Z,6200
2016-03-23T07:16:53.440Z,6672
2016-03-23T07:17:53.942Z,6408
2016-03-23T07:18:54.992Z,7052
2016-03-23T07:19:54.620Z,6424
2016-03-23T07:20:53.872Z,7432
2016-03-23T07:22:53.425Z,10864
2016-03-23T07:23:53.381Z,10408
2016-03-23T07:24:53.462Z,9988
2016-03-23T07:25:53.370Z,8684
2016-03-23T07:26:53.373Z,7836
2016-03-23T07:27:53.391Z,8444
2016-03-23T07:28:53.378Z,9456
2016-03-23T07:29:53.397Z,11272
2016-03-23T07:30:53.369Z,10532
2016-03-23T07:31:53.371Z,9488
2016-03-23T07:32:53.374Z,9496
2016-03-23T07:33:53.346Z,9472
2016-03-23T07:34:53.348Z,8928
2016-03-23T07:35:53.179Z,8664
2016-03-23T07:36:53.354Z,7968
2016-03-23T07:37:53.324Z,8508
2016-03-23T07:38:53.327Z,8524
2016-03-23T07:39:53.298Z,9608
2016-03-23T07:40:53.317Z,10112
2016-03-23T07:41:53.304Z,9448
2016-03-23T07:42:53.290Z,8572
2016-03-23T07:43:53.138Z,8340
2016-03-23T07:44:53.390Z,8264
2016-03-23T07:45:53.284Z,8144
2016-03-23T07:46:53.302Z,8780
2016-03-23T07:47:53.304Z,9312
2016-03-23T07:48:53.307Z,10748
2016-03-23T07:49:53.279Z,11100
2016-03-23T07:50:53.281Z,11108
2016-03-23T07:51:53.269Z,11260
2016-03-23T07:52:53.271Z,10580
2016-03-23T07:53:53.258Z,10592
2016-03-23T07:54:53.277Z,11548
2016-03-23T07:55:53.232Z,10972
2016-03-23T07:56:53.251Z,10536
2016-03-23T07:57:53.238Z,10252
2016-03-23T07:58:53.241Z,10060
2016-03-23T07:59:53.368Z,10324
2016-03-23T08:00:53.246Z,10912
2016-03-23T08:01:53.233Z,11608
2016-03-23T08:02:53.220Z,12316
2016-03-23T08:03:53.208Z,11504
2016-03-23T08:04:53.210Z,11708
2016-03-23T08:05:53.228Z,10892
2016-03-23T08:06:53.199Z,9536
2016-03-23T08:07:53.218Z,8832
2016-03-23T08:08:53.190Z,9064
2016-03-23T08:09:55.395Z,9584
2016-03-23T08:10:53.929Z,10244
2016-03-23T08:11:54.540Z,10752
2016-03-23T08:12:54.121Z,9740
2016-03-23T08:13:54.031Z,10064
2016-03-23T08:14:53.956Z,11044
2016-03-23T08:15:53.286Z,11700
2016-03-23T08:16:53.164Z,12160
2016-03-23T08:17:53.182Z,13024
2016-03-23T08:18:55.497Z,12096
2016-03-23T08:19:53.157Z,12344
2016-03-23T08:20:53.143Z,13488
2016-03-23T08:21:54.209Z,14640
2016-03-23T08:22:53.133Z,14820
2016-03-23T08:23:53.167Z,14620
2016-03-23T08:24:53.139Z,14372
2016-03-23T08:25:53.188Z,14456
2016-03-23T08:26:53.128Z,14204
2016-03-23T08:28:08.116Z,14132
2016-03-23T08:28:53.633Z,13336
2016-03-23T08:30:08.559Z,12044
2016-03-23T08:30:53.139Z,12352
2016-03-23T08:31:53.658Z,12844
2016-03-23T08:32:53.191Z,13240
2016-03-23T08:33:53.100Z,12364
2016-03-23T08:34:53.103Z,10560
2016-03-23T08:35:53.090Z,10380
2016-03-23T08:36:53.108Z,11548
2016-03-23T08:38:07.642Z,13304
2016-03-23T08:38:53.099Z,14088
2016-03-23T08:40:07.741Z,14340
2016-03-23T08:40:53.104Z,13556
2016-03-23T08:41:53.779Z,10312
2016-03-23T08:42:53.265Z,7736
2016-03-23T08:43:53.079Z,6084
2016-03-23T08:44:53.333Z,5184
2016-03-23T08:45:53.070Z,4616
2016-03-23T08:46:53.088Z,4104
2016-03-23T08:47:53.075Z,3940
2016-03-23T08:48:53.062Z,4436
2016-03-23T08:49:53.065Z,4980
2016-03-23T08:50:53.067Z,5820
2016-03-23T08:51:53.056Z,6576
2016-03-23T08:52:53.042Z,7680
2016-03-23T08:53:53.060Z,8980
2016-03-23T08:54:53.047Z,9964
2016-03-23T08:55:53.050Z,10464
2016-03-23T08:56:53.350Z,11368
2016-03-23T08:57:53.071Z,12460
2016-03-23T08:58:53.058Z,13124
2016-03-23T08:59:53.061Z,12964
2016-03-23T09:00:53.032Z,12708
2016-03-23T09:01:53.036Z,12952
2016-03-23T09:02:53.006Z,13516
2016-03-23T09:03:53.025Z,13808
2016-03-23T09:04:53.011Z,13896
2016-03-23T09:05:52.999Z,14248
2016-03-23T09:06:53.002Z,14928
2016-03-23T09:07:53.004Z,15448
2016-03-23T09:08:52.991Z,15184
2016-03-23T09:09:53.009Z,14948
2016-03-23T09:10:52.982Z,15260
2016-03-23T09:11:52.999Z,15364
2016-03-23T09:12:53.002Z,15204
2016-03-23T09:13:53.004Z,14072
2016-03-23T09:14:53.007Z,12688
2016-03-23T09:15:52.995Z,11952
2016-03-23T09:16:52.966Z,11780
2016-03-23T09:17:52.968Z,12176
2016-03-23T09:18:52.987Z,12336
2016-03-23T09:19:52.973Z,13228
2016-03-23T09:20:52.992Z,12908
2016-03-23T09:21:52.964Z,11612
2016-03-23T09:22:52.966Z,10852
2016-03-23T09:23:52.970Z,11780
2016-03-23T09:24:52.972Z,13604
2016-03-23T09:25:53.005Z,13392
2016-03-23T09:26:52.961Z,11840
2016-03-23T09:27:54.745Z,11256
2016-03-23T09:28:53.530Z,11900
2016-03-23T09:29:52.938Z,13624
2016-03-23T09:30:52.988Z,15916
2016-03-23T09:31:52.928Z,16608
2016-03-23T09:32:52.915Z,14564
2016-03-23T09:33:53.200Z,13424
2016-03-23T09:34:52.936Z,14980
2016-03-23T09:35:52.938Z,17728
2016-03-23T09:36:52.926Z,19232
2016-03-23T09:37:53.679Z,18592
2016-03-23T09:38:53.963Z,16480
2016-03-23T09:39:53.543Z,14716
2016-03-23T09:40:52.937Z,15096
2016-03-23T09:41:53.440Z,16512
2016-03-23T09:42:53.082Z,17504
2016-03-23T09:43:52.930Z,18560
2016-03-23T09:44:52.932Z,19520
2016-03-23T09:45:52.919Z,18720
2016-03-23T09:47:07.938Z,18432
2016-03-23T09:48:07.096Z,19008
2016-03-23T09:48:52.912Z,18656
2016-03-23T09:49:52.945Z,17504
2016-03-23T09:50:52.994Z,17024
2016-03-23T09:51:53.184Z,18560
2016-03-23T09:52:53.062Z,20320
2016-03-23T09:53:52.878Z,21920
2016-03-23T09:54:52.896Z,22944
2016-03-23T09:55:52.899Z,22816
2016-03-23T09:56:53.339Z,22464
2016-03-23T09:57:53.403Z,22848
2016-03-23T09:58:52.907Z,22880
2016-03-23T10:00:07.097Z,22656
2016-03-23T10:00:52.880Z,21888
2016-03-23T10:01:53.368Z,21056
2016-03-23T10:02:52.886Z,21472
2016-03-23T10:03:53.014Z,20928
2016-03-23T10:04:52.892Z,19776
2016-03-23T10:05:52.879Z,19296
2016-03-23T10:06:52.897Z,18304
2016-03-23T10:07:52.884Z,16896
2016-03-23T10:08:52.888Z,15680
2016-03-23T10:09:52.874Z,14904
2016-03-23T10:10:52.908Z,15068
2016-03-23T10:11:52.879Z,15416
2016-03-23T10:12:52.898Z,16096
2016-03-23T10:13:52.901Z,16832
2016-03-23T10:14:52.887Z,17984
2016-03-23T10:15:52.891Z,18304
2016-03-23T10:16:52.893Z,18432
2016-03-23T10:17:52.879Z,18880
2016-03-23T10:18:52.868Z,18944
2016-03-23T10:19:52.885Z,17824
2016-03-23T10:20:52.873Z,18016
2016-03-23T10:21:52.859Z,18080
2016-03-23T10:22:52.878Z,18816
2016-03-23T10:23:52.864Z,19232
2016-03-23T10:24:52.884Z,19296
2016-03-23T10:25:52.870Z,20800
2016-03-23T10:26:52.903Z,22656
2016-03-23T10:27:52.875Z,23200
2016-03-23T10:28:52.894Z,24160
2016-03-23T10:29:52.881Z,25024
2016-03-23T10:30:52.867Z,25152
2016-03-23T10:31:52.870Z,25056
2016-03-23T10:32:52.952Z,23936
2016-03-23T10:33:52.875Z,21856
2016-03-23T10:34:52.879Z,20512
2016-03-23T10:35:52.866Z,20704
2016-03-23T10:36:52.868Z,21216
2016-03-23T10:37:52.886Z,20384
2016-03-23T10:38:52.874Z,19328
2016-03-23T10:39:52.924Z,19392
2016-03-23T10:40:52.894Z,20352
2016-03-23T10:41:52.913Z,21440
2016-03-23T10:42:52.869Z,21696
2016-03-23T10:43:52.902Z,21728
2016-03-23T10:44:52.891Z,21728
2016-03-23T10:45:52.893Z,21824
2016-03-23T10:46:53.536Z,22176
2016-03-23T10:47:52.882Z,22944
2016-03-23T10:48:53.807Z,23424
2016-03-23T10:49:54.012Z,23008
2016-03-23T10:50:53.937Z,21376
2016-03-23T10:51:53.018Z,20096
2016-03-23T10:52:52.880Z,19904
2016-03-23T10:53:53.414Z,19392
2016-03-23T10:54:53.073Z,19520
2016-03-23T10:55:52.889Z,19968
2016-03-23T10:56:52.812Z,20672
2016-03-23T10:57:53.050Z,21472
2016-03-23T10:58:52.897Z,21504
2016-03-23T10:59:53.977Z,21440
2016-03-23T11:00:52.891Z,22400
2016-03-23T11:01:53.159Z,23296
2016-03-23T11:02:53.287Z,23360
2016-03-23T11:03:52.899Z,22144
2016-03-23T11:04:52.902Z,20352
2016-03-23T11:05:53.248Z,19648
2016-03-23T11:07:21.266Z,19680
2016-03-23T11:07:52.910Z,19232
2016-03-23T11:08:52.882Z,18592
2016-03-23T11:09:52.915Z,18464
2016-03-23T11:10:53.043Z,18080
2016-03-23T11:11:52.905Z,17216
2016-03-23T11:12:52.892Z,16352
2016-03-23T11:13:52.910Z,15292
2016-03-23T11:14:52.912Z,13972
2016-03-23T11:15:53.760Z,12936
2016-03-23T11:16:53.449Z,13648
2016-03-23T11:17:52.905Z,13268
2016-03-23T11:19:07.096Z,11612
2016-03-23T11:19:53.317Z,11396
2016-03-23T11:20:53.304Z,11636
2016-03-23T11:21:52.932Z,12272
2016-03-23T11:22:52.934Z,12208
2016-03-23T11:23:52.906Z,12020
2016-03-23T11:24:52.908Z,11636
2016-03-23T11:25:52.928Z,10748
2016-03-23T11:26:52.930Z,10480
2016-03-23T11:27:52.933Z,10012
2016-03-23T11:28:52.936Z,9288
2016-03-23T11:29:52.891Z,8972
2016-03-23T11:30:52.925Z,9296
2016-03-23T11:31:52.912Z,9376
2016-03-23T11:32:52.915Z,9376
2016-03-23T11:33:52.902Z,9112
2016-03-23T11:34:52.935Z,8716
2016-03-23T11:35:52.892Z,8216
2016-03-23T11:36:52.910Z,7524
2016-03-23T11:37:52.897Z,7308
2016-03-23T11:38:52.915Z,7356
2016-03-23T11:39:52.902Z,7372
2016-03-23T11:40:52.920Z,6936
2016-03-23T11:41:52.892Z,6096
2016-03-23T11:42:52.910Z,5484
2016-03-23T11:43:52.912Z,5556
2016-03-23T11:44:52.915Z,6308
2016-03-23T11:45:52.887Z,6880
2016-03-23T11:46:52.905Z,6644
2016-03-23T11:47:52.876Z,6060
2016-03-23T11:48:52.895Z,5416
2016-03-23T11:49:52.882Z,4872
2016-03-23T11:50:52.900Z,4520
2016-03-23T11:51:52.904Z,4356
2016-03-23T11:52:52.906Z,4548
2016-03-23T11:53:52.893Z,5384
2016-03-23T11:54:52.911Z,6632
2016-03-23T11:55:52.914Z,7720
2016-03-23T11:56:52.886Z,8188
2016-03-23T11:57:52.888Z,7692
2016-03-23T11:58:52.922Z,6776
2016-03-23T11:59:52.878Z,6132
2016-03-23T12:00:52.880Z,6108
2016-03-23T12:01:52.884Z,6500
2016-03-23T12:02:52.870Z,7188
2016-03-23T12:03:52.872Z,8324
2016-03-23T12:04:52.875Z,9016
2016-03-23T12:05:55.191Z,9128
2016-03-23T12:06:54.413Z,9192
2016-03-23T12:07:52.868Z,9244
2016-03-23T12:08:53.261Z,8760
2016-03-23T12:09:53.404Z,8068
2016-03-23T12:10:52.844Z,7924
2016-03-23T12:11:52.847Z,7788
2016-03-23T12:12:52.241Z,7228
2016-03-23T12:13:52.837Z,6688
2016-03-23T12:14:52.824Z,6224
2016-03-23T12:15:54.937Z,5896
2016-03-23T12:16:54.861Z,5816
2016-03-23T12:17:54.332Z,6076
2016-03-23T12:18:53.320Z,6492
2016-03-23T12:19:53.462Z,6428
2016-03-23T12:20:52.857Z,6236
2016-03-23T12:21:53.281Z,6196
2016-03-23T12:22:52.877Z,6220
2016-03-23T12:23:52.801Z,6672
2016-03-23T12:24:53.211Z,7676
2016-03-23T12:26:07.010Z,8152
2016-03-23T12:26:53.106Z,7844
2016-03-23T12:27:53.547Z,7156
2016-03-23T12:28:52.815Z,6984
2016-03-23T12:29:52.802Z,7000
2016-03-23T12:30:52.789Z,7484
2016-03-23T12:31:53.308Z,7932
2016-03-23T12:32:52.763Z,7456
2016-03-23T12:33:53.188Z,6280
2016-03-23T12:35:06.956Z,5040
2016-03-23T12:36:22.459Z,4700
2016-03-23T12:36:53.243Z,4752
2016-03-23T12:37:53.464Z,5072
2016-03-23T12:38:52.764Z,5648
2016-03-23T12:39:52.782Z,5944
2016-03-23T12:40:52.800Z,6264
2016-03-23T12:41:52.740Z,6512
2016-03-23T12:42:52.759Z,6276
2016-03-23T12:43:52.762Z,6072
2016-03-23T12:44:52.748Z,6088
2016-03-23T12:45:52.720Z,6024
2016-03-23T12:46:52.738Z,5856
2016-03-23T12:47:52.740Z,6068
2016-03-23T12:48:52.728Z,6424
2016-03-23T12:49:52.731Z,6424
2016-03-23T12:50:52.701Z,6304
2016-03-23T12:51:52.704Z,6368
2016-03-23T12:52:52.724Z,6504
2016-03-23T12:53:52.726Z,6732
2016-03-23T12:54:52.698Z,7192
2016-03-23T12:55:52.700Z,7568
2016-03-23T12:56:52.578Z,7888
2016-03-23T12:57:52.705Z,8200
2016-03-23T12:58:52.708Z,8128
2016-03-23T12:59:52.726Z,7208
2016-03-23T13:00:52.683Z,6364
2016-03-23T13:01:52.669Z,6340
2016-03-23T13:02:52.672Z,6440
2016-03-23T13:03:52.675Z,6440
2016-03-23T13:04:52.677Z,6440
2016-03-23T13:05:52.680Z,6252
2016-03-23T13:06:52.667Z,6180
2016-03-23T13:07:52.654Z,6540
2016-03-23T13:08:52.673Z,7624
2016-03-23T13:09:52.675Z,8660
2016-03-23T13:10:52.646Z,8644
2016-03-23T13:11:52.665Z,7512
2016-03-23T13:12:52.636Z,6424
2016-03-23T13:13:52.639Z,5992
2016-03-23T13:14:52.610Z,6096
2016-03-23T13:15:52.738Z,6432
2016-03-23T13:16:52.616Z,6512
2016-03-23T13:17:52.634Z,6456
2016-03-23T13:18:52.622Z,6636
2016-03-23T13:19:52.609Z,6560
2016-03-23T13:20:52.611Z,6468
2016-03-23T13:21:52.630Z,6524
2016-03-23T13:22:52.601Z,6804
2016-03-23T13:23:52.619Z,7004
2016-03-23T13:24:54.106Z,7184
2016-03-23T13:25:53.312Z,7648
2016-03-23T13:26:54.314Z,8000
2016-03-23T13:27:52.599Z,8132
2016-03-23T13:28:52.570Z,8556
2016-03-23T13:29:52.698Z,9272
2016-03-23T13:30:53.294Z,10036
2016-03-23T13:31:52.547Z,10868
2016-03-23T13:32:52.564Z,11908
2016-03-23T13:33:52.567Z,13084
2016-03-23T13:34:53.820Z,14176
2016-03-23T13:35:53.730Z,15084
2016-03-23T13:36:53.170Z,15572
2016-03-23T13:37:52.547Z,15728
2016-03-23T13:38:53.003Z,15676
2016-03-23T13:39:52.568Z,15496
2016-03-23T13:40:52.541Z,15196
2016-03-23T13:41:52.527Z,15280
2016-03-23T13:42:52.607Z,15068
2016-03-23T13:43:54.174Z,14620
2016-03-23T13:45:20.910Z,13276
2016-03-23T13:45:52.585Z,12708